Las Pedroneras, Spain
Current Conditions -  °F | °C
As of 6:00 AM on Thursday 27 Nov 2014 (Local Time) from LEAB Reporting Station
Few Clouds Few Clouds  
Wind Chill: 45°   Ceiling: Unl
Heat Index: 45°   Visibility: 5mi
Dew Point: 43°   Wind: 3mph
Humidity: 93%   Direction: 120°ESE
Pressure: 29.71"   Gusts: NA
Location:  39.45°N, 2.68°W
Report Text: LEAB 270500Z 12003KT 8000 FEW016 07/06 Q1006 NOSIG
Loading
Personal Weather Stations






























Interactive Weather Map New forecast layout! Learn more

10-Day Weather Forecast

Advertisements
Track Severe Weather on mobile